Time;durP1;ratioP1;P1;durP2;ratioP2;P2;SDS_P1;SDS_P2;PMS_P1;PMS_P2;Temp;Humidity;BMP_temperature;BMP_pressure;BME280_temperature;BME280_humidity;BME280_pressure;Samples;Min_cycle;Max_cycle;Signal;HPM_P1;HPM_P2
2021/10/21 00:00:17;;;;;;;4.90;3.87;;;15.20;99.90;;;;;;1995839;70;21055;-85
2021/10/21 00:02:43;;;;;;;4.50;4.10;;;14.90;99.90;;;;;;1998311;70;21058;-84
2021/10/21 00:05:09;;;;;;;6.90;4.12;;;14.80;99.90;;;;;;1994248;70;21121;-83
2021/10/21 00:07:35;;;;;;;5.65;4.35;;;15.00;99.90;;;;;;1991242;70;21128;-84
2021/10/21 00:10:03;;;;;;;4.90;4.17;;;15.00;99.90;;;;;;2018629;70;21018;-82
2021/10/21 00:12:29;;;;;;;8.70;4.33;;;15.00;99.90;;;;;;1987341;70;21098;-83
2021/10/21 00:14:55;;;;;;;6.47;4.60;;;14.90;99.90;;;;;;2011743;70;21128;-84
2021/10/21 00:17:21;;;;;;;9.33;4.62;;;15.00;99.90;;;;;;2007352;70;21059;-84
2021/10/21 00:19:47;;;;;;;5.83;4.53;;;14.80;99.90;;;;;;1987596;70;21078;-84
2021/10/21 00:22:13;;;;;;;7.90;4.85;;;14.90;99.90;;;;;;1998198;70;21156;-85
2021/10/21 00:24:40;;;;;;;6.60;4.85;;;14.80;99.90;;;;;;2000811;70;21109;-84
2021/10/21 00:27:06;;;;;;;6.92;4.78;;;14.80;99.90;;;;;;1993818;70;21052;-83
2021/10/21 00:29:33;;;;;;;5.87;4.50;;;14.70;99.90;;;;;;1998630;70;21028;-83
2021/10/21 00:31:59;;;;;;;6.97;4.67;;;14.80;99.90;;;;;;1990451;70;21111;-84
2021/10/21 00:34:25;;;;;;;7.45;5.60;;;14.70;99.90;;;;;;1997300;70;21179;-82
2021/10/21 00:36:51;;;;;;;6.67;5.87;;;14.70;99.90;;;;;;2020740;70;21228;-82
2021/10/21 00:39:17;;;;;;;9.60;6.58;;;14.70;99.90;;;;;;1988881;70;21019;-82
2021/10/21 00:41:43;;;;;;;9.80;6.35;;;14.70;99.90;;;;;;1996432;70;21123;-82
2021/10/21 00:44:11;;;;;;;8.85;6.25;;;14.60;99.90;;;;;;1988405;70;21058;-84
2021/10/21 00:46:37;;;;;;;11.08;6.90;;;14.50;99.90;;;;;;1985155;71;21541;-83
2021/10/21 00:49:03;;;;;;;17.73;6.42;;;14.50;99.90;;;;;;1990699;70;21458;-86
2021/10/21 00:51:29;;;;;;;7.65;5.97;;;14.50;99.90;;;;;;2010818;70;21474;-84
2021/10/21 00:53:55;;;;;;;11.95;6.33;;;14.50;99.90;;;;;;1987812;70;21053;-85
2021/10/21 00:56:21;;;;;;;10.15;6.37;;;14.40;99.90;;;;;;2017349;70;21127;-84
2021/10/21 00:58:50;;;;;;;12.15;5.87;;;14.40;99.90;;;;;;2007994;70;21075;-84
2021/10/21 01:01:15;;;;;;;7.55;6.00;;;14.30;99.90;;;;;;2007170;70;21107;-85
2021/10/21 01:03:41;;;;;;;10.30;6.75;;;14.30;99.90;;;;;;1987083;70;21166;-84
2021/10/21 01:06:08;;;;;;;10.30;6.85;;;14.30;99.90;;;;;;1997039;70;21594;-84
2021/10/21 01:08:34;;;;;;;8.25;6.53;;;14.30;99.90;;;;;;1995195;70;21028;-84
2021/10/21 01:11:00;;;;;;;7.70;5.90;;;14.30;99.90;;;;;;2010080;70;21066;-84
2021/10/21 01:13:26;;;;;;;13.22;6.55;;;14.30;99.90;;;;;;2018335;70;21054;-84
2021/10/21 01:15:52;;;;;;;12.43;6.33;;;14.40;99.90;;;;;;1989693;70;21219;-84
2021/10/21 01:18:19;;;;;;;6.95;5.72;;;14.30;99.90;;;;;;2014113;70;21114;-85
2021/10/21 01:20:45;;;;;;;9.43;6.33;;;14.30;99.90;;;;;;1987362;70;21140;-84
2021/10/21 01:23:11;;;;;;;10.13;6.33;;;14.30;99.90;;;;;;2018784;70;21063;-83
2021/10/21 01:25:37;;;;;;;10.20;7.00;;;14.30;99.90;;;;;;2005940;70;21199;-83
2021/10/21 01:28:04;;;;;;;7.83;6.28;;;14.30;99.90;;;;;;2003553;70;21074;-84
2021/10/21 01:30:30;;;;;;;8.85;7.03;;;14.30;99.90;;;;;;1995126;70;21113;-84
2021/10/21 01:32:56;;;;;;;15.08;6.83;;;14.30;99.90;;;;;;2008126;70;21131;-84
2021/10/21 01:35:22;;;;;;;6.58;5.92;;;14.30;99.90;;;;;;2012479;70;21062;-84
2021/10/21 01:37:49;;;;;;;8.73;6.35;;;14.30;99.90;;;;;;2007245;70;21066;-83
2021/10/21 01:40:15;;;;;;;11.53;6.87;;;14.20;99.90;;;;;;2013727;70;21042;-84
2021/10/21 01:42:43;;;;;;;8.98;6.87;;;14.20;99.90;;;;;;2015373;70;21058;-84
2021/10/21 01:45:10;;;;;;;9.35;6.72;;;14.20;99.90;;;;;;2022207;70;21053;-84
2021/10/21 01:47:36;;;;;;;9.28;6.72;;;14.20;99.90;;;;;;2008444;70;21057;-84
2021/10/21 01:50:02;;;;;;;11.25;7.05;;;14.20;99.90;;;;;;1990014;70;21054;-82
2021/10/21 01:52:28;;;;;;;8.38;6.30;;;14.10;99.90;;;;;;2010204;70;21056;-82
2021/10/21 01:54:54;;;;;;;8.38;5.97;;;14.10;99.90;;;;;;1994162;70;21067;-83
2021/10/21 01:57:20;;;;;;;9.05;5.65;;;14.20;99.90;;;;;;2008238;70;21120;-83
2021/10/21 01:59:46;;;;;;;12.30;6.05;;;14.20;99.90;;;;;;2014050;70;21074;-82
2021/10/21 02:02:12;;;;;;;8.53;5.95;;;14.10;99.90;;;;;;2029074;70;21127;-83
2021/10/21 02:04:39;;;;;;;8.65;6.15;;;14.10;99.90;;;;;;1994275;70;21125;-83
2021/10/21 02:07:05;;;;;;;6.85;5.87;;;14.10;99.90;;;;;;1987382;70;21202;-82
2021/10/21 02:09:31;;;;;;;5.97;5.37;;;14.10;99.90;;;;;;2001103;70;21154;-83
2021/10/21 02:11:57;;;;;;;8.55;6.03;;;14.20;99.90;;;;;;2022488;70;21078;-83
2021/10/21 02:14:23;;;;;;;6.67;5.40;;;14.20;99.90;;;;;;1980807;70;21442;-84
2021/10/21 02:16:49;;;;;;;5.03;4.53;;;14.30;99.90;;;;;;1999072;70;21450;-84
2021/10/21 02:19:15;;;;;;;7.15;4.85;;;14.30;99.90;;;;;;1999309;70;21117;-84
2021/10/21 02:21:42;;;;;;;6.12;4.90;;;14.30;99.90;;;;;;1977362;70;21697;-84
2021/10/21 02:24:08;;;;;;;6.33;4.78;;;14.30;99.90;;;;;;2006834;70;21300;-83
2021/10/21 02:26:34;;;;;;;4.87;4.40;;;14.30;99.90;;;;;;2020353;70;21104;-84
2021/10/21 02:29:00;;;;;;;6.35;5.10;;;14.30;99.90;;;;;;2000292;70;21082;-84
2021/10/21 02:31:26;;;;;;;4.33;3.77;;;14.30;99.90;;;;;;1998691;70;21027;-83
2021/10/21 02:33:52;;;;;;;5.72;4.90;;;14.30;99.90;;;;;;1998716;70;21175;-82
2021/10/21 02:36:18;;;;;;;5.85;4.45;;;14.30;99.90;;;;;;2002334;70;21087;-83
2021/10/21 02:38:44;;;;;;;5.45;4.85;;;14.30;99.90;;;;;;2027121;70;21092;-83
2021/10/21 02:41:10;;;;;;;6.83;4.67;;;14.30;99.90;;;;;;2008873;70;21063;-83
2021/10/21 02:43:37;;;;;;;5.08;4.58;;;14.30;99.90;;;;;;2023497;70;21079;-82
2021/10/21 02:46:04;;;;;;;5.97;4.87;;;14.30;99.90;;;;;;2027628;70;21136;-82
2021/10/21 02:48:30;;;;;;;5.45;4.90;;;14.40;99.90;;;;;;2015313;70;21080;-82
2021/10/21 02:50:56;;;;;;;5.55;4.35;;;14.40;99.90;;;;;;2014766;70;21123;-82
2021/10/21 02:53:22;;;;;;;5.95;4.75;;;14.40;99.90;;;;;;1993667;70;21038;-81
2021/10/21 02:55:49;;;;;;;5.53;4.65;;;14.40;99.90;;;;;;2023569;70;21175;-81
2021/10/21 02:58:15;;;;;;;6.60;4.40;;;14.40;99.90;;;;;;2012159;70;21576;-82
2021/10/21 03:00:41;;;;;;;5.53;4.50;;;14.50;99.90;;;;;;2007823;70;21552;-82
2021/10/21 03:03:07;;;;;;;4.83;4.30;;;14.50;99.90;;;;;;2023294;70;21596;-82
2021/10/21 03:05:33;;;;;;;5.30;4.80;;;14.50;99.90;;;;;;2011537;70;21458;-81
2021/10/21 03:08:00;;;;;;;4.87;4.37;;;14.40;99.90;;;;;;2007612;70;21050;-81
2021/10/21 03:10:26;;;;;;;5.72;4.70;;;14.50;99.90;;;;;;2020730;70;21136;-81
2021/10/21 03:12:52;;;;;;;5.45;4.85;;;14.40;99.90;;;;;;1997789;70;21089;-81
2021/10/21 03:15:18;;;;;;;4.78;4.37;;;14.40;99.90;;;;;;1995518;70;21331;-81
2021/10/21 03:17:44;;;;;;;5.97;4.80;;;14.40;99.90;;;;;;1993634;70;21137;-81
2021/10/21 03:20:11;;;;;;;6.00;4.90;;;14.40;99.90;;;;;;1993959;70;21105;-81
2021/10/21 03:22:37;;;;;;;8.80;4.80;;;14.40;99.90;;;;;;1992650;70;21031;-81
2021/10/21 03:25:03;;;;;;;6.53;4.97;;;14.50;99.90;;;;;;1997339;70;21046;-80
2021/10/21 03:27:29;;;;;;;5.22;4.72;;;14.50;99.90;;;;;;2000088;70;21054;-81
2021/10/21 03:29:56;;;;;;;6.90;5.03;;;14.40;99.90;;;;;;2024578;70;21047;-82
2021/10/21 03:32:22;;;;;;;7.00;5.00;;;14.40;99.90;;;;;;1990920;70;21063;-81
2021/10/21 03:34:48;;;;;;;5.47;4.72;;;14.50;99.90;;;;;;2011682;70;21143;-82
2021/10/21 03:37:14;;;;;;;9.35;4.78;;;14.50;99.90;;;;;;2003370;70;21046;-82
2021/10/21 03:39:40;;;;;;;6.58;4.62;;;14.50;99.90;;;;;;1987345;70;21038;-83
2021/10/21 03:42:08;;;;;;;4.33;3.67;;;14.70;99.90;;;;;;1990058;70;21516;-83
2021/10/21 03:44:34;;;;;;;2.85;2.65;;;14.80;99.90;;;;;;1998710;70;21096;-82
2021/10/21 03:47:00;;;;;;;4.42;2.70;;;15.10;99.90;;;;;;1995810;70;21483;-82
2021/10/21 03:49:26;;;;;;;3.62;2.20;;;15.30;99.90;;;;;;1987342;71;21121;-82
2021/10/21 03:51:52;;;;;;;5.10;1.72;;;15.50;99.90;;;;;;2016635;70;21160;-81
2021/10/21 03:54:19;;;;;;;3.35;1.77;;;15.60;99.90;;;;;;2016813;70;21105;-83
2021/10/21 03:56:45;;;;;;;1.80;1.40;;;15.60;99.90;;;;;;2004129;70;21140;-81
2021/10/21 03:59:11;;;;;;;2.70;1.40;;;15.60;99.90;;;;;;2014333;70;21019;-81
2021/10/21 04:01:37;;;;;;;2.15;1.10;;;15.60;99.90;;;;;;2016304;70;21146;-82
2021/10/21 04:04:03;;;;;;;0.82;0.70;;;15.70;99.90;;;;;;2017895;70;21124;-81
2021/10/21 04:06:29;;;;;;;1.40;0.75;;;15.80;99.90;;;;;;2019532;70;22539;-79
2021/10/21 04:08:55;;;;;;;0.78;0.70;;;15.90;99.90;;;;;;2006588;70;21270;-80
2021/10/21 04:11:22;;;;;;;3.40;0.78;;;16.00;99.90;;;;;;2003171;70;21254;-82
2021/10/21 04:13:48;;;;;;;1.35;0.80;;;16.00;99.90;;;;;;2014076;70;21151;-81
2021/10/21 04:16:14;;;;;;;5.58;0.90;;;15.90;99.90;;;;;;2013121;70;21551;-82
2021/10/21 04:18:40;;;;;;;0.98;0.68;;;15.80;99.90;;;;;;1999288;70;21464;-80
2021/10/21 04:21:06;;;;;;;0.37;0.37;;;15.80;99.90;;;;;;1995594;70;21462;-80
2021/10/21 04:23:32;;;;;;;0.88;0.40;;;15.80;99.90;;;;;;2024806;70;21439;-82
2021/10/21 04:25:58;;;;;;;0.47;0.47;;;15.80;99.90;;;;;;1997993;70;21462;-81
2021/10/21 04:28:25;;;;;;;2.72;0.70;;;15.80;99.90;;;;;;2025505;70;21051;-80
2021/10/21 04:30:51;;;;;;;2.62;0.98;;;15.80;99.90;;;;;;2022461;70;21093;-81
2021/10/21 04:33:17;;;;;;;5.20;0.62;;;15.80;99.90;;;;;;1997183;70;21059;-79
2021/10/21 04:35:43;;;;;;;0.68;0.55;;;15.70;99.90;;;;;;2016558;70;21051;-78
2021/10/21 04:38:09;;;;;;;1.15;0.68;;;15.70;99.90;;;;;;1997975;70;21104;-79
2021/10/21 04:40:35;;;;;;;1.27;0.60;;;15.70;99.90;;;;;;2008683;70;21015;-77
2021/10/21 04:43:02;;;;;;;4.33;0.50;;;15.60;99.90;;;;;;1995696;70;21221;-77
2021/10/21 04:45:28;;;;;;;0.47;0.47;;;15.70;99.90;;;;;;2011901;70;21066;-78
2021/10/21 04:47:56;;;;;;;2.20;0.55;;;15.60;99.90;;;;;;1986196;71;21054;-77
2021/10/21 04:50:22;;;;;;;2.40;0.70;;;15.50;99.90;;;;;;1997807;70;21110;-77
2021/10/21 04:52:52;;;;;;;2.02;0.60;;;15.50;99.90;;;;;;1994401;70;21422;-78
2021/10/21 04:55:16;;;;;;;4.95;0.88;;;15.50;99.90;;;;;;2028826;70;21162;-79
2021/10/21 04:57:42;;;;;;;3.50;0.68;;;15.30;99.90;;;;;;1994944;70;21119;-76
2021/10/21 05:00:08;;;;;;;4.05;0.85;;;15.30;99.90;;;;;;1999312;70;21154;-77
2021/10/21 05:02:34;;;;;;;2.30;0.95;;;15.30;99.90;;;;;;1997847;70;21082;-76
2021/10/21 05:05:00;;;;;;;3.02;0.55;;;15.40;99.90;;;;;;1999189;70;21051;-76
2021/10/21 05:07:26;;;;;;;3.05;0.88;;;15.30;99.90;;;;;;2020555;70;21059;-76
2021/10/21 05:09:52;;;;;;;4.37;0.93;;;15.30;99.90;;;;;;1988081;70;21123;-76
2021/10/21 05:12:19;;;;;;;4.60;0.88;;;15.20;99.90;;;;;;1979491;71;21131;-78
2021/10/21 05:14:45;;;;;;;1.07;0.60;;;15.10;99.90;;;;;;2003565;70;21225;-76
2021/10/21 05:17:11;;;;;;;1.77;0.70;;;15.10;99.90;;;;;;1982986;70;21606;-77
2021/10/21 05:19:37;;;;;;;1.82;0.88;;;15.00;99.90;;;;;;2009414;70;21539;-77
2021/10/21 05:22:03;;;;;;;3.95;0.70;;;14.80;99.90;;;;;;2001406;70;21046;-77
2021/10/21 05:24:29;;;;;;;4.60;0.82;;;14.80;99.90;;;;;;1984430;70;21042;-77
2021/10/21 05:26:55;;;;;;;4.05;1.07;;;14.70;99.90;;;;;;2005269;70;21124;-77
2021/10/21 05:29:22;;;;;;;1.77;0.65;;;14.70;99.90;;;;;;2012499;70;21055;-77
2021/10/21 05:31:49;;;;;;;1.27;0.60;;;14.80;99.90;;;;;;1996172;70;21199;-77
2021/10/21 05:34:15;;;;;;;7.17;0.93;;;14.80;99.90;;;;;;2014712;70;21050;-77
2021/10/21 05:36:41;;;;;;;3.47;0.70;;;14.80;99.90;;;;;;2003304;70;21028;-76
2021/10/21 05:39:07;;;;;;;3.25;0.60;;;14.60;99.90;;;;;;2010696;70;21169;-77
2021/10/21 05:41:33;;;;;;;2.87;0.82;;;14.60;99.90;;;;;;2017724;70;21046;-77
2021/10/21 05:43:59;;;;;;;2.33;0.70;;;14.50;99.90;;;;;;1991964;70;21524;-77
2021/10/21 05:46:25;;;;;;;4.20;1.07;;;14.60;99.90;;;;;;2009142;70;21058;-76
2021/10/21 05:48:52;;;;;;;4.17;1.05;;;14.60;99.90;;;;;;1984379;70;21400;-76
2021/10/21 05:51:18;;;;;;;3.12;0.80;;;14.50;99.90;;;;;;1998587;70;21066;-77
2021/10/21 05:53:45;;;;;;;1.60;0.70;;;14.50;99.90;;;;;;1996819;70;21098;-78
2021/10/21 05:56:11;;;;;;;9.83;0.95;;;14.50;99.90;;;;;;1990471;70;21071;-76
2021/10/21 05:58:41;;;;;;;5.47;0.95;;;14.40;99.90;;;;;;2009134;70;21090;-77
2021/10/21 06:01:05;;;;;;;2.52;0.88;;;14.30;99.90;;;;;;1995583;70;21079;-76
2021/10/21 06:03:36;;;;;;;7.37;1.10;;;14.30;99.90;;;;;;2009285;70;21133;-77
2021/10/21 06:05:59;;;;;;;3.15;0.98;;;14.30;99.90;;;;;;1994405;70;21149;-78
2021/10/21 06:08:25;;;;;;;8.83;1.05;;;14.20;99.90;;;;;;2013354;70;21062;-75
2021/10/21 06:10:51;;;;;;;4.83;1.17;;;14.20;99.90;;;;;;2004783;70;21050;-75
2021/10/21 06:13:17;;;;;;;3.60;1.10;;;14.10;99.90;;;;;;2005577;70;21132;-76
2021/10/21 06:15:44;;;;;;;8.93;1.17;;;14.10;99.90;;;;;;2001394;70;21120;-75
2021/10/21 06:18:11;;;;;;;6.55;1.52;;;14.00;99.90;;;;;;1990747;70;21031;-76
2021/10/21 06:20:38;;;;;;;10.70;1.12;;;14.10;99.90;;;;;;2004338;70;21035;-76
2021/10/21 06:23:04;;;;;;;3.75;1.10;;;14.00;99.90;;;;;;1996878;70;21057;-73
2021/10/21 06:25:30;;;;;;;3.85;1.10;;;14.00;99.90;;;;;;1991051;70;21184;-75
2021/10/21 06:27:56;;;;;;;3.58;1.05;;;14.00;99.90;;;;;;2012459;70;21135;-75
2021/10/21 06:30:22;;;;;;;3.45;1.02;;;14.00;99.90;;;;;;1997158;70;21023;-76
2021/10/21 06:32:50;;;;;;;8.83;1.55;;;14.00;99.90;;;;;;2007292;70;21128;-75
2021/10/21 06:35:16;;;;;;;3.72;1.20;;;14.00;99.90;;;;;;1999203;70;21058;-75
2021/10/21 06:37:42;;;;;;;2.33;0.80;;;14.00;99.90;;;;;;2003708;70;21127;-75
2021/10/21 06:40:08;;;;;;;4.08;1.45;;;14.00;99.90;;;;;;2000606;70;21051;-74
2021/10/21 06:42:39;;;;;;;4.95;1.45;;;14.00;99.90;;;;;;1984243;70;21050;-77
2021/10/21 06:45:02;;;;;;;10.68;1.40;;;13.90;99.90;;;;;;1992905;70;21082;-79
2021/10/21 06:47:29;;;;;;;12.80;1.90;;;13.90;99.90;;;;;;2001518;70;21058;-79
2021/10/21 06:49:55;;;;;;;7.78;1.52;;;13.90;99.90;;;;;;1985286;70;21524;-77
2021/10/21 06:52:21;;;;;;;8.75;1.20;;;13.90;99.90;;;;;;2004809;70;21440;-75
2021/10/21 06:54:48;;;;;;;11.25;1.40;;;13.90;99.90;;;;;;1999666;70;21229;-78
2021/10/21 06:57:14;;;;;;;13.95;1.00;;;14.00;99.90;;;;;;2026703;70;21246;-74
2021/10/21 06:59:40;;;;;;;3.87;1.30;;;14.10;99.90;;;;;;1992351;70;21173;-75
2021/10/21 07:02:06;;;;;;;7.17;1.50;;;14.10;99.90;;;;;;2002744;70;21106;-76
2021/10/21 07:04:32;;;;;;;9.73;1.45;;;14.10;99.90;;;;;;2001678;70;21050;-75
2021/10/21 07:06:59;;;;;;;7.33;1.45;;;14.20;99.90;;;;;;1984744;70;21024;-75
2021/10/21 07:09:25;;;;;;;5.03;1.50;;;14.10;99.90;;;;;;1998513;70;21177;-75
2021/10/21 07:11:51;;;;;;;7.53;1.92;;;14.30;99.90;;;;;;2003710;70;21055;-74
2021/10/21 07:14:17;;;;;;;10.80;1.75;;;14.30;99.90;;;;;;1982172;70;21152;-74
2021/10/21 07:16:44;;;;;;;18.12;1.95;;;14.40;99.90;;;;;;2007248;70;21419;-75
2021/10/21 07:19:10;;;;;;;9.80;0.95;;;14.50;99.90;;;;;;2015107;70;21511;-76
2021/10/21 07:21:37;;;;;;;2.95;1.10;;;14.50;99.90;;;;;;1984799;70;21054;-75
2021/10/21 07:24:03;;;;;;;7.53;1.50;;;14.60;99.90;;;;;;1984715;70;21132;-74
2021/10/21 07:26:29;;;;;;;2.77;1.17;;;14.60;99.90;;;;;;2004286;70;22516;-74
2021/10/21 07:28:55;;;;;;;3.52;1.17;;;14.70;99.90;;;;;;1992980;70;21604;-74
2021/10/21 07:31:22;;;;;;;3.75;1.17;;;14.70;99.90;;;;;;1994788;70;21481;-76
2021/10/21 07:33:49;;;;;;;6.62;1.47;;;14.70;99.90;;;;;;2010056;70;21128;-75
2021/10/21 07:36:17;;;;;;;10.40;1.40;;;14.80;99.90;;;;;;2009565;70;21133;-78
2021/10/21 07:38:43;;;;;;;6.55;1.30;;;14.80;99.90;;;;;;2001041;70;21206;-76
2021/10/21 07:41:09;;;;;;;2.95;0.90;;;14.80;99.90;;;;;;1985915;70;21151;-74
2021/10/21 07:43:35;;;;;;;3.08;0.72;;;14.80;99.90;;;;;;2003893;70;21051;-75
2021/10/21 07:46:01;;;;;;;6.35;1.07;;;14.80;99.90;;;;;;1998446;70;21123;-76
2021/10/21 07:48:27;;;;;;;3.15;0.93;;;14.70;99.90;;;;;;2009795;70;21011;-75
2021/10/21 07:50:53;;;;;;;3.20;1.05;;;14.80;99.90;;;;;;1997797;70;21136;-75
2021/10/21 07:53:19;;;;;;;6.03;1.00;;;14.80;99.90;;;;;;2005914;70;21152;-76
2021/10/21 07:55:46;;;;;;;7.45;1.05;;;14.80;99.90;;;;;;1996128;70;21128;-75
2021/10/21 07:58:12;;;;;;;2.20;0.82;;;14.80;99.90;;;;;;2016865;70;21024;-76
2021/10/21 08:00:38;;;;;;;1.67;0.78;;;14.80;99.90;;;;;;1989935;70;21141;-75
2021/10/21 08:03:05;;;;;;;1.75;0.80;;;14.80;99.90;;;;;;1994356;70;21263;-75
2021/10/21 08:05:31;;;;;;;2.08;0.90;;;14.80;99.90;;;;;;1994425;70;21071;-76
2021/10/21 08:07:57;;;;;;;1.22;0.60;;;14.70;99.90;;;;;;1979481;70;21106;-75
2021/10/21 08:10:24;;;;;;;1.82;0.78;;;14.70;99.90;;;;;;2001574;70;21028;-77
2021/10/21 08:12:50;;;;;;;4.97;1.00;;;14.70;99.90;;;;;;2011462;70;21483;-73
2021/10/21 08:15:16;;;;;;;3.60;0.80;;;14.60;99.90;;;;;;1996484;70;21062;-75
2021/10/21 08:17:43;;;;;;;2.45;0.50;;;14.60;99.90;;;;;;1986243;70;21226;-76
2021/10/21 08:20:11;;;;;;;1.72;0.50;;;14.60;99.90;;;;;;1998744;70;21559;-76
2021/10/21 08:22:37;;;;;;;2.87;0.50;;;14.60;99.90;;;;;;2011768;70;21058;-76
2021/10/21 08:25:03;;;;;;;5.65;0.90;;;14.60;99.90;;;;;;1994685;70;21127;-75
2021/10/21 08:27:29;;;;;;;2.27;0.60;;;14.60;99.90;;;;;;2018851;70;21055;-76
2021/10/21 08:29:55;;;;;;;2.12;0.53;;;14.80;99.90;;;;;;2028961;70;21055;-75
2021/10/21 08:32:21;;;;;;;2.35;0.60;;;14.90;99.90;;;;;;2000590;70;21155;-73
2021/10/21 08:34:48;;;;;;;4.22;0.40;;;14.90;99.90;;;;;;2006869;70;21075;-73
2021/10/21 08:37:14;;;;;;;1.95;0.80;;;15.00;99.90;;;;;;2019392;70;21024;-73
2021/10/21 08:39:41;;;;;;;4.83;0.53;;;15.10;99.90;;;;;;2019286;70;21058;-73
2021/10/21 08:42:09;;;;;;;2.87;0.78;;;15.00;99.90;;;;;;2005650;70;21071;-74
2021/10/21 08:44:35;;;;;;;5.15;0.70;;;15.10;99.90;;;;;;2004879;70;21116;-75
2021/10/21 08:47:01;;;;;;;1.77;0.60;;;15.10;99.90;;;;;;1996147;70;21225;-74
2021/10/21 08:49:27;;;;;;;2.30;0.40;;;15.00;99.90;;;;;;1987854;71;21490;-73
2021/10/21 08:51:54;;;;;;;4.17;0.60;;;15.00;99.90;;;;;;2003197;70;21540;-75
2021/10/21 08:54:20;;;;;;;3.45;0.60;;;15.00;99.90;;;;;;2007075;70;21120;-75
2021/10/21 08:56:46;;;;;;;1.65;0.40;;;15.10;99.90;;;;;;1991342;70;21117;-75
2021/10/21 08:59:12;;;;;;;6.50;0.70;;;14.90;99.90;;;;;;2013106;70;21231;-75
2021/10/21 09:09:04;;;;;;;;;;;14.50;99.90;;;;;;1980616;70;21486;-75
2021/10/21 09:11:31;;;;;;;0.60;0.30;;;14.40;99.90;;;;;;1991956;70;20123;-75
2021/10/21 09:13:57;;;;;;;8.35;0.60;;;14.30;99.90;;;;;;1994564;70;21063;-78
2021/10/21 09:16:23;;;;;;;1.35;0.40;;;14.30;99.90;;;;;;1998972;70;21127;-77
2021/10/21 09:18:49;;;;;;;4.90;0.50;;;14.50;99.90;;;;;;1996291;70;21221;-79
2021/10/21 09:21:15;;;;;;;4.10;0.40;;;14.60;99.90;;;;;;2001989;70;21124;-81
2021/10/21 09:23:42;;;;;;;1.02;0.45;;;14.80;99.90;;;;;;1988053;70;21029;-79
2021/10/21 09:26:08;;;;;;;3.33;0.40;;;14.80;99.90;;;;;;1998395;70;21074;-79
2021/10/21 09:28:35;;;;;;;2.33;0.40;;;14.90;99.90;;;;;;1993917;70;21108;-80
2021/10/21 09:31:03;;;;;;;0.30;0.20;;;15.00;99.90;;;;;;1998972;70;21064;-81
2021/10/21 09:33:29;;;;;;;1.25;0.70;;;15.00;99.90;;;;;;1987028;70;21226;-82
2021/10/21 09:35:55;;;;;;;5.12;0.70;;;15.00;99.90;;;;;;2000724;70;21128;-82
2021/10/21 09:38:21;;;;;;;0.72;0.40;;;15.10;99.90;;;;;;1992993;70;21014;-82
2021/10/21 09:40:47;;;;;;;0.30;0.20;;;15.60;99.90;;;;;;1990963;70;21121;-80
2021/10/21 09:43:15;;;;;;;1.27;0.47;;;15.50;99.90;;;;;;1989517;70;21145;-77
2021/10/21 09:45:43;;;;;;;1.25;0.35;;;15.30;99.90;;;;;;1998694;70;21189;-77
2021/10/21 09:48:09;;;;;;;2.10;0.40;;;15.40;99.90;;;;;;1987040;71;21452;-77
2021/10/21 09:50:36;;;;;;;1.20;0.42;;;15.60;99.90;;;;;;1996590;70;21133;-78
2021/10/21 09:53:03;;;;;;;2.47;0.50;;;15.80;99.90;;;;;;2020378;70;21077;-76
2021/10/21 09:55:29;;;;;;;5.15;0.60;;;16.00;99.90;;;;;;2000935;70;21075;-74
2021/10/21 09:57:55;;;;;;;0.62;0.23;;;15.90;99.90;;;;;;2002405;70;21135;-77
2021/10/21 10:00:21;;;;;;;0.78;0.10;;;15.60;99.90;;;;;;2007225;70;21556;-76
2021/10/21 10:02:47;;;;;;;0.40;0.40;;;15.70;99.90;;;;;;1991901;70;21467;-75
2021/10/21 10:05:16;;;;;;;0.23;0.23;;;15.20;99.90;;;;;;2020928;70;21459;-77
2021/10/21 10:07:41;;;;;;;1.22;0.50;;;14.70;99.90;;;;;;2006701;70;21153;-82
2021/10/21 10:10:07;;;;;;;1.52;0.50;;;14.60;99.90;;;;;;2004673;70;21041;-77
2021/10/21 10:12:34;;;;;;;0.95;0.23;;;14.60;99.90;;;;;;2017040;70;21067;-77
2021/10/21 10:15:00;;;;;;;0.47;0.23;;;14.40;99.90;;;;;;2006010;70;21136;-78
2021/10/21 10:17:30;;;;;;;0.72;0.65;;;14.40;99.90;;;;;;2003187;70;21031;-76
2021/10/21 10:19:56;;;;;;;2.17;0.85;;;14.50;99.90;;;;;;1992525;70;21031;-78
2021/10/21 10:22:22;;;;;;;0.23;0.23;;;14.70;99.90;;;;;;2000627;70;21176;-77
2021/10/21 10:24:49;;;;;;;1.10;0.30;;;14.80;99.90;;;;;;2004117;70;21052;-76
2021/10/21 10:27:15;;;;;;;4.42;0.40;;;15.00;99.90;;;;;;2025116;70;21145;-79
2021/10/21 10:29:42;;;;;;;2.45;0.35;;;15.20;99.90;;;;;;2006470;70;21019;-80
2021/10/21 10:32:09;;;;;;;0.33;0.28;;;15.30;99.90;;;;;;2016957;70;21143;-78
2021/10/21 10:34:35;;;;;;;0.60;0.60;;;15.50;99.90;;;;;;2015707;70;21063;-76
2021/10/21 10:37:01;;;;;;;0.20;0.20;;;15.70;99.90;;;;;;2013370;70;21135;-77
2021/10/21 10:39:27;;;;;;;3.30;0.60;;;16.00;99.90;;;;;;1997781;70;21153;-78
2021/10/21 10:41:54;;;;;;;1.00;0.20;;;16.00;99.90;;;;;;1999043;70;21050;-78
2021/10/21 10:44:20;;;;;;;0.88;0.60;;;16.00;99.90;;;;;;1982581;70;21124;-78
2021/10/21 10:46:46;;;;;;;0.90;0.70;;;16.30;99.90;;;;;;1981631;70;21058;-77
2021/10/21 10:49:13;;;;;;;1.62;0.70;;;16.80;99.90;;;;;;1990079;70;21058;-75
2021/10/21 10:51:39;;;;;;;2.77;0.50;;;16.60;99.90;;;;;;1989355;70;21082;-78
2021/10/21 10:54:06;;;;;;;0.78;0.40;;;16.80;99.90;;;;;;2020931;70;21487;-77
2021/10/21 10:56:32;;;;;;;12.63;0.75;;;16.80;99.90;;;;;;2001763;70;21439;-77
2021/10/21 10:58:58;;;;;;;2.72;0.50;;;16.80;99.90;;;;;;2026110;70;21451;-77
2021/10/21 11:01:24;;;;;;;1.17;0.40;;;16.70;99.90;;;;;;2017297;70;21400;-77
2021/10/21 11:03:50;;;;;;;1.15;0.53;;;16.40;99.90;;;;;;2010120;70;21657;-77
2021/10/21 11:06:17;;;;;;;4.65;0.80;;;16.90;99.90;;;;;;2012888;70;21463;-77
2021/10/21 11:08:43;;;;;;;0.90;0.50;;;16.80;99.90;;;;;;1991282;70;21247;-77
2021/10/21 11:11:09;;;;;;;6.05;0.75;;;16.50;99.90;;;;;;1994684;70;21046;-78
2021/10/21 11:13:35;;;;;;;2.35;0.62;;;16.90;99.90;;;;;;1994398;70;21585;-77
2021/10/21 11:16:02;;;;;;;0.72;0.55;;;17.10;99.90;;;;;;1986811;70;21455;-77
2021/10/21 11:18:29;;;;;;;7.70;0.90;;;16.80;99.90;;;;;;2014390;70;21194;-77
2021/10/21 11:20:57;;;;;;;2.67;0.50;;;17.40;99.90;;;;;;1992805;70;21054;-76
2021/10/21 11:23:23;;;;;;;2.30;0.78;;;17.40;99.90;;;;;;2006571;70;21058;-80
2021/10/21 11:25:49;;;;;;;2.27;0.60;;;18.10;99.90;;;;;;2010914;70;21036;-74
2021/10/21 11:28:15;;;;;;;0.85;0.42;;;18.50;99.90;;;;;;2001799;70;21120;-75
2021/10/21 11:30:41;;;;;;;4.00;0.50;;;18.30;99.90;;;;;;1991940;70;21050;-75
2021/10/21 11:33:07;;;;;;;4.67;0.60;;;17.70;99.90;;;;;;1998447;70;21066;-76
2021/10/21 11:35:33;;;;;;;2.58;0.60;;;18.20;99.90;;;;;;2001391;70;21032;-75
2021/10/21 11:38:00;;;;;;;0.78;0.53;;;18.40;99.90;;;;;;2034572;70;21121;-74
2021/10/21 11:40:26;;;;;;;1.40;0.70;;;18.70;99.90;;;;;;2005959;70;21059;-74
2021/10/21 11:45:36;;;;;;;2.77;0.70;;;18.70;99.90;;;;;;1988160;70;21473;-74
2021/10/21 11:48:02;;;;;;;2.58;0.80;;;18.50;99.90;;;;;;2003206;70;21483;-75
2021/10/21 11:50:28;;;;;;;1.47;0.70;;;18.30;99.90;;;;;;2029425;70;21126;-74
2021/10/21 11:52:55;;;;;;;4.03;0.75;;;18.30;99.90;;;;;;2006091;70;21032;-75
2021/10/21 11:55:26;;;;;;;3.12;0.70;;;17.90;99.90;;;;;;2001942;70;21136;-74
2021/10/21 11:57:49;;;;;;;1.87;0.82;;;17.70;99.90;;;;;;1993635;70;21468;-74
2021/10/21 12:00:15;;;;;;;1.32;0.57;;;18.40;99.90;;;;;;2011683;70;21548;-76
2021/10/21 12:02:42;;;;;;;3.37;1.15;;;18.50;99.90;;;;;;2000849;70;21123;-75
2021/10/21 12:05:08;;;;;;;1.50;0.53;;;18.90;99.90;;;;;;1997385;70;21120;-76
2021/10/21 12:07:34;;;;;;;1.80;0.60;;;18.90;99.90;;;;;;1991426;70;22011;-77
2021/10/21 12:10:00;;;;;;;0.93;0.42;;;18.80;99.90;;;;;;1996691;70;22069;-76
2021/10/21 12:12:26;;;;;;;2.35;0.60;;;19.30;99.90;;;;;;1986611;70;21131;-77
2021/10/21 12:14:52;;;;;;;1.87;0.93;;;19.40;99.90;;;;;;2000699;70;21125;-78
2021/10/21 12:17:18;;;;;;;0.62;0.50;;;19.50;99.90;;;;;;2012276;70;21059;-76
2021/10/21 12:19:45;;;;;;;1.40;0.50;;;19.40;99.90;;;;;;1994632;70;21107;-75
2021/10/21 12:22:19;;;;;;;1.67;0.60;;;19.60;99.90;;;;;;2014623;70;21176;-75
2021/10/21 12:24:38;;;;;;;0.78;0.40;;;19.10;99.90;;;;;;1991838;70;21050;-75
2021/10/21 12:27:05;;;;;;;1.30;0.60;;;18.10;99.90;;;;;;1997670;70;21055;-75
2021/10/21 12:29:38;;;;;;;1.75;0.60;;;18.00;99.90;;;;;;1992724;70;21119;-73
2021/10/21 12:31:59;;;;;;;3.72;0.70;;;17.10;99.90;;;;;;2012590;70;21100;-76
2021/10/21 12:34:25;;;;;;;2.20;0.80;;;16.80;99.90;;;;;;2015429;70;21063;-73
2021/10/21 12:36:51;;;;;;;1.35;0.50;;;17.00;99.90;;;;;;1993914;70;21055;-74
2021/10/21 12:39:17;;;;;;;1.15;0.50;;;16.90;99.90;;;;;;1986644;70;21439;-74
2021/10/21 12:41:44;;;;;;;1.02;0.70;;;16.30;99.90;;;;;;1982125;70;21493;-73
2021/10/21 12:44:10;;;;;;;1.77;0.50;;;16.20;99.90;;;;;;2014455;70;21093;-73
2021/10/21 12:46:36;;;;;;;2.47;0.53;;;16.30;99.90;;;;;;2006665;70;21050;-73
2021/10/21 12:49:02;;;;;;;1.80;0.65;;;16.30;99.90;;;;;;1991764;70;21125;-74